Terminal Aerodrome Forecast
Issued by NWS Sioux Falls, SD

Home | Current Version | Previous Version | Graphics & Text | Print | Product List | Glossary Off
Versions: 1 2 3 4 5 6 7 8 9 10 11 12 13 14

000
FTUS43 KFSD 132300
TAFSUX
TAF
KSUX 132339Z 1400/1424 36022G33KT P6SM SCT020 OVC050
     FM140100 35020G31KT P6SM OVC070
     FM140500 34018G26KT P6SM OVC120
     FM141700 33015G23KT P6SM SCT050=

USA.gov is the U.S. government's official web portal to all federal, state and local government web resources and services.